Time;durP1;ratioP1;P1;durP2;ratioP2;P2;SDS_P1;SDS_P2;PMS_P1;PMS_P2;Temp;Humidity;BMP_temperature;BMP_pressure;BME280_temperature;BME280_humidity;BME280_pressure;Samples;Min_cycle;Max_cycle;Signal;HPM_P1;HPM_P2
2021/03/01 00:01:49;;;;;;;26.58;11.32;;;;;;;;;;5064353;28;20279;-75
2021/03/01 00:04:15;;;;;;;29.95;11.70;;;;;;;;;;5069023;28;20183;-78
2021/03/01 00:06:41;;;;;;;27.67;11.57;;;;;;;;;;5067654;28;20561;-75
2021/03/01 00:09:07;;;;;;;26.80;13.07;;;;;;;;;;5069319;28;20187;-77
2021/03/01 00:11:36;;;;;;;35.42;12.75;;;;;;;;;;5043679;28;20605;-77
2021/03/01 00:14:02;;;;;;;27.63;13.40;;;;;;;;;;5047476;28;20197;-79
2021/03/01 00:16:28;;;;;;;31.67;12.70;;;;;;;;;;5059715;28;20517;-76
2021/03/01 00:18:54;;;;;;;29.98;13.48;;;;;;;;;;5052629;28;20238;-77
2021/03/01 00:21:20;;;;;;;30.23;12.95;;;;;;;;;;5050076;28;20200;-79
2021/03/01 00:23:47;;;;;;;29.25;14.23;;;;;;;;;;5058422;28;20692;-78
2021/03/01 00:26:13;;;;;;;26.08;12.20;;;;;;;;;;5044297;28;20177;-75
2021/03/01 00:28:40;;;;;;;24.63;12.18;;;;;;;;;;5059306;28;20180;-75
2021/03/01 00:31:07;;;;;;;21.38;11.05;;;;;;;;;;5048773;28;20173;-76
2021/03/01 00:33:33;;;;;;;27.83;13.27;;;;;;;;;;5048686;28;20203;-75
2021/03/01 00:35:59;;;;;;;20.83;10.70;;;;;;;;;;5052937;28;20180;-74
2021/03/01 00:38:25;;;;;;;29.50;11.27;;;;;;;;;;5052835;28;20193;-78
2021/03/01 00:40:51;;;;;;;30.27;12.90;;;;;;;;;;5052748;28;20185;-77
2021/03/01 00:43:17;;;;;;;23.25;10.55;;;;;;;;;;5052166;28;20216;-78
2021/03/01 00:45:43;;;;;;;26.27;12.48;;;;;;;;;;5052764;28;20173;-78
2021/03/01 00:48:09;;;;;;;25.35;12.48;;;;;;;;;;5052912;28;20226;-78
2021/03/01 00:50:35;;;;;;;27.73;12.45;;;;;;;;;;5052624;28;20538;-78
2021/03/01 00:53:01;;;;;;;26.67;13.07;;;;;;;;;;5052195;28;20231;-77
2021/03/01 00:55:27;;;;;;;23.95;11.02;;;;;;;;;;5052630;28;20534;-77
2021/03/01 00:57:53;;;;;;;22.10;10.80;;;;;;;;;;5052573;28;20192;-76
2021/03/01 01:00:20;;;;;;;22.67;11.13;;;;;;;;;;5052725;28;20196;-77
2021/03/01 01:02:46;;;;;;;21.40;10.65;;;;;;;;;;5054903;28;20204;-76
2021/03/01 01:05:13;;;;;;;27.48;12.65;;;;;;;;;;5056054;28;20181;-75
2021/03/01 01:07:39;;;;;;;26.23;11.60;;;;;;;;;;5056303;28;20176;-77
2021/03/01 01:10:06;;;;;;;23.25;11.80;;;;;;;;;;5056623;28;20522;-77
2021/03/01 01:12:36;;;;;;;26.92;12.75;;;;;;;;;;5056606;28;20212;-77
2021/03/01 01:15:03;;;;;;;23.83;12.25;;;;;;;;;;5059648;28;20173;-77
2021/03/01 01:17:29;;;;;;;25.73;13.05;;;;;;;;;;5078102;28;20989;-77
2021/03/01 01:19:55;;;;;;;26.15;12.55;;;;;;;;;;5057074;28;20180;-77
2021/03/01 01:22:21;;;;;;;28.13;12.48;;;;;;;;;;5055894;28;20209;-76
2021/03/01 01:24:47;;;;;;;31.27;13.32;;;;;;;;;;5056234;28;20196;-77
2021/03/01 01:27:13;;;;;;;26.98;12.93;;;;;;;;;;5056256;28;20181;-76
2021/03/01 01:29:39;;;;;;;25.98;12.18;;;;;;;;;;5056139;28;20181;-77
2021/03/01 01:32:05;;;;;;;26.77;13.13;;;;;;;;;;5055944;28;20529;-74
2021/03/01 01:34:31;;;;;;;27.40;13.20;;;;;;;;;;5054879;28;20188;-74
2021/03/01 01:36:57;;;;;;;29.55;13.32;;;;;;;;;;5060278;28;20185;-75
2021/03/01 01:39:23;;;;;;;25.73;12.75;;;;;;;;;;5055622;28;20185;-77
2021/03/01 01:41:49;;;;;;;28.33;11.40;;;;;;;;;;5055879;28;20188;-74
2021/03/01 01:44:15;;;;;;;26.05;12.32;;;;;;;;;;5071759;28;20184;-76
2021/03/01 01:46:41;;;;;;;26.13;12.75;;;;;;;;;;5075100;28;20179;-77
2021/03/01 01:49:07;;;;;;;25.77;12.32;;;;;;;;;;5075380;28;20196;-77
2021/03/01 01:51:33;;;;;;;21.77;11.68;;;;;;;;;;5075694;28;20172;-75
2021/03/01 01:53:59;;;;;;;25.95;11.25;;;;;;;;;;5058689;28;20199;-77
2021/03/01 01:56:26;;;;;;;25.45;11.73;;;;;;;;;;5055853;28;20184;-75
2021/03/01 01:58:52;;;;;;;26.10;11.60;;;;;;;;;;5055673;28;20189;-77
2021/03/01 02:01:18;;;;;;;22.67;11.32;;;;;;;;;;5064766;28;20686;-77
2021/03/01 02:03:50;;;;;;;23.08;11.60;;;;;;;;;;5075043;28;20207;-73
2021/03/01 02:06:31;;;;;;;24.30;11.77;;;;;;;;;;5075074;28;20619;-77
2021/03/01 02:09:16;;;;;;;21.13;10.38;;;;;;;;;;5070545;28;20177;-73
2021/03/01 02:12:01;;;;;;;18.45;10.55;;;;;;;;;;5055307;28;20168;-76
2021/03/01 02:14:34;;;;;;;25.45;10.18;;;;;;;;;;5052247;28;20169;-76
2021/03/01 02:17:00;;;;;;;21.48;10.52;;;;;;;;;;5049349;28;20185;-75
2021/03/01 02:19:26;;;;;;;20.90;10.00;;;;;;;;;;5054644;28;20545;-77
2021/03/01 02:21:52;;;;;;;24.20;11.85;;;;;;;;;;5052768;28;20653;-75
2021/03/01 02:24:23;;;;;;;18.15;9.70;;;;;;;;;;5054259;28;20180;-77
2021/03/01 02:26:50;;;;;;;18.60;10.27;;;;;;;;;;5041387;28;20173;-77
2021/03/01 02:29:18;;;;;;;19.38;10.50;;;;;;;;;;5054557;28;20177;-77
2021/03/01 02:31:46;;;;;;;20.55;10.95;;;;;;;;;;5050619;28;20204;-75
2021/03/01 02:34:13;;;;;;;21.95;10.90;;;;;;;;;;5054425;28;20193;-77
2021/03/01 02:36:41;;;;;;;20.15;10.98;;;;;;;;;;5071918;28;20164;-77
2021/03/01 02:39:07;;;;;;;24.13;11.00;;;;;;;;;;5054160;28;20177;-77
2021/03/01 02:41:34;;;;;;;20.42;10.40;;;;;;;;;;5054400;28;20256;-78
2021/03/01 02:44:01;;;;;;;16.00;9.45;;;;;;;;;;5057654;28;20210;-74
2021/03/01 02:46:27;;;;;;;18.67;9.85;;;;;;;;;;5054471;28;20661;-75
2021/03/01 02:48:54;;;;;;;16.40;8.93;;;;;;;;;;5053360;28;20212;-77
2021/03/01 02:51:21;;;;;;;15.93;8.57;;;;;;;;;;5054212;28;20264;-76
2021/03/01 02:53:47;;;;;;;18.65;9.93;;;;;;;;;;5050495;28;20536;-77
2021/03/01 02:56:15;;;;;;;17.48;8.82;;;;;;;;;;5071114;28;20187;-77
2021/03/01 02:58:41;;;;;;;18.65;9.35;;;;;;;;;;5052740;28;20180;-77
2021/03/01 03:01:09;;;;;;;17.30;8.90;;;;;;;;;;5052943;28;20214;-76
2021/03/01 03:03:36;;;;;;;15.52;9.23;;;;;;;;;;5053896;28;20266;-75
2021/03/01 03:06:03;;;;;;;22.77;13.55;;;;;;;;;;5061782;28;20245;-79
2021/03/01 03:08:30;;;;;;;17.73;9.80;;;;;;;;;;5074330;28;20549;-76
2021/03/01 03:10:56;;;;;;;18.63;8.73;;;;;;;;;;5068377;28;20641;-76
2021/03/01 03:13:23;;;;;;;14.18;7.97;;;;;;;;;;5073850;28;20261;-75
2021/03/01 03:15:54;;;;;;;16.77;8.60;;;;;;;;;;5057577;28;20176;-75
2021/03/01 03:18:20;;;;;;;15.77;8.55;;;;;;;;;;5054363;28;20246;-76
2021/03/01 03:20:46;;;;;;;16.15;8.20;;;;;;;;;;5053617;28;20181;-76
2021/03/01 03:23:12;;;;;;;14.98;8.80;;;;;;;;;;5052983;28;20573;-78
2021/03/01 03:25:39;;;;;;;16.20;8.88;;;;;;;;;;5053763;28;20581;-78
2021/03/01 03:28:05;;;;;;;16.65;8.95;;;;;;;;;;5053556;28;20290;-77
2021/03/01 03:30:32;;;;;;;14.55;8.60;;;;;;;;;;5053318;28;20184;-78
2021/03/01 03:32:58;;;;;;;16.20;8.95;;;;;;;;;;5053280;28;20542;-75
2021/03/01 03:35:24;;;;;;;17.55;9.27;;;;;;;;;;5055199;28;20268;-77
2021/03/01 03:37:53;;;;;;;17.73;9.35;;;;;;;;;;5052793;28;20200;-78
2021/03/01 03:40:19;;;;;;;17.95;10.27;;;;;;;;;;5063375;28;20583;-78
2021/03/01 03:42:46;;;;;;;18.38;9.20;;;;;;;;;;5073291;28;20226;-75
2021/03/01 03:45:13;;;;;;;17.25;9.85;;;;;;;;;;5056842;28;20172;-76
2021/03/01 03:47:42;;;;;;;15.30;8.40;;;;;;;;;;5053078;28;20674;-77
2021/03/01 03:50:08;;;;;;;14.23;8.77;;;;;;;;;;5053165;28;20177;-73
2021/03/01 03:52:38;;;;;;;20.80;9.85;;;;;;;;;;5052872;28;20243;-76
2021/03/01 03:55:05;;;;;;;19.17;9.95;;;;;;;;;;5052976;28;20185;-77
2021/03/01 03:57:34;;;;;;;17.02;9.07;;;;;;;;;;5053154;28;20222;-75
2021/03/01 04:00:01;;;;;;;20.48;10.20;;;;;;;;;;5051613;28;20235;-76
2021/03/01 04:02:28;;;;;;;22.25;11.30;;;;;;;;;;5052497;28;20216;-75
2021/03/01 04:04:55;;;;;;;19.10;10.00;;;;;;;;;;5052529;28;20185;-76
2021/03/01 04:07:22;;;;;;;17.90;9.70;;;;;;;;;;5047484;28;20183;-76
2021/03/01 04:09:49;;;;;;;18.45;9.57;;;;;;;;;;5060055;28;20179;-77
2021/03/01 04:12:16;;;;;;;17.73;9.38;;;;;;;;;;5068473;28;20579;-77
2021/03/01 04:14:42;;;;;;;19.20;9.77;;;;;;;;;;5052527;28;20195;-75
2021/03/01 04:17:12;;;;;;;21.30;9.85;;;;;;;;;;5053092;28;20261;-76
2021/03/01 04:19:39;;;;;;;20.73;10.38;;;;;;;;;;5061033;28;20176;-76
2021/03/01 04:22:06;;;;;;;20.88;10.90;;;;;;;;;;5052101;28;20199;-77
2021/03/01 04:24:33;;;;;;;22.13;10.60;;;;;;;;;;5057546;28;20208;-77
2021/03/01 04:26:59;;;;;;;21.70;10.88;;;;;;;;;;5054092;28;20173;-74
2021/03/01 04:29:26;;;;;;;18.50;9.30;;;;;;;;;;5052828;28;20184;-78
2021/03/01 04:31:53;;;;;;;16.85;10.25;;;;;;;;;;5050003;28;20199;-77
2021/03/01 04:34:20;;;;;;;20.45;10.38;;;;;;;;;;5062115;28;20186;-77
2021/03/01 04:36:46;;;;;;;19.20;10.60;;;;;;;;;;5066339;28;20181;-76
2021/03/01 04:39:12;;;;;;;25.02;11.15;;;;;;;;;;5053069;28;20176;-76
2021/03/01 04:41:39;;;;;;;20.85;11.02;;;;;;;;;;5053865;28;20176;-78
2021/03/01 04:44:06;;;;;;;22.52;10.70;;;;;;;;;;5057157;28;20674;-77
2021/03/01 04:46:33;;;;;;;18.35;10.52;;;;;;;;;;5052761;28;20256;-76
2021/03/01 04:49:01;;;;;;;19.20;10.60;;;;;;;;;;5052580;28;20576;-78
2021/03/01 04:51:28;;;;;;;22.98;11.05;;;;;;;;;;5053019;28;20177;-78
2021/03/01 04:53:54;;;;;;;20.33;10.55;;;;;;;;;;5051848;28;20208;-76
2021/03/01 04:56:20;;;;;;;21.40;11.07;;;;;;;;;;5052772;28;20185;-78
2021/03/01 04:58:46;;;;;;;20.23;10.45;;;;;;;;;;5052331;28;20188;-76
2021/03/01 05:01:14;;;;;;;21.35;10.88;;;;;;;;;;5046380;28;20190;-76
2021/03/01 05:03:40;;;;;;;23.15;10.75;;;;;;;;;;5064417;28;20212;-79
2021/03/01 05:06:06;;;;;;;20.17;10.48;;;;;;;;;;5054482;28;20197;-75
2021/03/01 05:08:34;;;;;;;21.25;10.77;;;;;;;;;;5065057;28;20513;-79
2021/03/01 05:11:00;;;;;;;19.20;10.05;;;;;;;;;;5058417;28;20181;-75
2021/03/01 05:13:26;;;;;;;19.48;10.85;;;;;;;;;;5052015;28;20251;-76
2021/03/01 05:15:52;;;;;;;24.10;12.32;;;;;;;;;;5060820;28;20267;-77
2021/03/01 05:18:19;;;;;;;20.13;9.93;;;;;;;;;;5072489;28;20192;-79
2021/03/01 05:20:45;;;;;;;23.02;10.50;;;;;;;;;;5054084;28;20503;-77
2021/03/01 05:23:11;;;;;;;21.60;11.30;;;;;;;;;;5051288;28;20209;-75
2021/03/01 05:25:37;;;;;;;26.40;11.38;;;;;;;;;;5065859;28;20180;-75
2021/03/01 05:28:03;;;;;;;18.42;10.50;;;;;;;;;;5076021;28;20169;-79
2021/03/01 05:30:29;;;;;;;20.05;11.00;;;;;;;;;;5049553;28;20212;-78
2021/03/01 05:32:55;;;;;;;23.58;11.65;;;;;;;;;;5068844;28;20217;-78
2021/03/01 05:35:21;;;;;;;20.85;10.85;;;;;;;;;;5060167;28;20185;-77
2021/03/01 05:37:48;;;;;;;18.45;11.25;;;;;;;;;;5057321;28;20184;-78
2021/03/01 05:40:14;;;;;;;17.60;10.73;;;;;;;;;;5058372;28;20173;-78
2021/03/01 05:42:41;;;;;;;19.40;11.38;;;;;;;;;;5065888;28;20689;-78
2021/03/01 05:45:09;;;;;;;21.42;11.40;;;;;;;;;;5054953;28;20189;-78
2021/03/01 05:47:35;;;;;;;21.25;11.27;;;;;;;;;;5055665;28;20176;-76
2021/03/01 05:50:02;;;;;;;21.25;10.65;;;;;;;;;;5055442;28;20252;-78
2021/03/01 05:52:28;;;;;;;22.10;11.50;;;;;;;;;;5054150;28;20219;-76
2021/03/01 05:54:54;;;;;;;21.48;10.90;;;;;;;;;;5051798;28;20177;-78
2021/03/01 05:57:22;;;;;;;19.58;10.15;;;;;;;;;;5054924;28;20173;-76
2021/03/01 05:59:49;;;;;;;27.58;10.95;;;;;;;;;;5050087;28;20189;-76
2021/03/01 06:02:18;;;;;;;20.55;11.32;;;;;;;;;;5053386;28;20303;-75
2021/03/01 06:04:44;;;;;;;18.00;10.52;;;;;;;;;;5054786;28;20173;-78
2021/03/01 06:07:10;;;;;;;20.65;11.35;;;;;;;;;;5048634;28;20184;-78
2021/03/01 06:09:36;;;;;;;19.27;10.75;;;;;;;;;;5073814;28;20475;-74
2021/03/01 06:12:02;;;;;;;19.10;11.30;;;;;;;;;;5071325;28;20712;-78
2021/03/01 06:14:28;;;;;;;21.35;11.32;;;;;;;;;;5058797;28;20226;-78
2021/03/01 06:17:09;;;;;;;20.73;11.38;;;;;;;;;;5054697;28;20177;-77
2021/03/01 06:19:44;;;;;;;20.45;12.20;;;;;;;;;;5054336;28;20177;-76
2021/03/01 06:22:11;;;;;;;22.45;12.18;;;;;;;;;;5054680;28;20232;-76
2021/03/01 06:24:37;;;;;;;19.77;11.68;;;;;;;;;;5057906;28;20517;-75
2021/03/01 06:27:03;;;;;;;21.02;12.15;;;;;;;;;;5055009;28;20641;-75
2021/03/01 06:29:29;;;;;;;26.02;12.43;;;;;;;;;;5054513;28;20522;-76
2021/03/01 06:31:56;;;;;;;25.67;12.02;;;;;;;;;;5052573;28;20254;-79
2021/03/01 06:34:26;;;;;;;22.30;11.82;;;;;;;;;;5054165;28;20172;-74
2021/03/01 06:36:58;;;;;;;21.25;11.00;;;;;;;;;;5054486;28;20188;-79
2021/03/01 06:39:30;;;;;;;16.88;10.63;;;;;;;;;;5054568;28;20282;-77
2021/03/01 06:41:56;;;;;;;20.88;9.68;;;;;;;;;;5054419;28;20200;-76
2021/03/01 06:44:23;;;;;;;22.23;12.40;;;;;;;;;;5071462;28;20172;-74
2021/03/01 06:46:49;;;;;;;20.00;11.75;;;;;;;;;;5074205;28;20172;-77
2021/03/01 06:49:16;;;;;;;22.17;10.90;;;;;;;;;;5073073;28;20600;-74
2021/03/01 06:51:42;;;;;;;19.60;11.65;;;;;;;;;;5072928;28;20172;-77
2021/03/01 06:54:08;;;;;;;21.90;11.25;;;;;;;;;;5056396;28;20227;-75
2021/03/01 06:56:41;;;;;;;21.67;11.88;;;;;;;;;;5054253;28;20181;-74
2021/03/01 06:59:14;;;;;;;21.90;11.27;;;;;;;;;;5070112;28;20176;-74
2021/03/01 07:01:58;;;;;;;18.85;10.48;;;;;;;;;;5053991;28;20557;-76
2021/03/01 07:04:25;;;;;;;17.73;10.95;;;;;;;;;;5037775;28;20220;-76
2021/03/01 07:06:52;;;;;;;20.25;11.50;;;;;;;;;;5063592;28;20549;-76
2021/03/01 07:09:20;;;;;;;20.23;10.43;;;;;;;;;;5065572;28;20173;-76
2021/03/01 07:11:46;;;;;;;21.98;11.52;;;;;;;;;;5064558;28;20172;-77
2021/03/01 07:14:13;;;;;;;24.10;12.65;;;;;;;;;;5070192;28;20288;-75
2021/03/01 07:16:41;;;;;;;26.70;11.43;;;;;;;;;;5052502;28;20667;-75
2021/03/01 07:19:09;;;;;;;22.15;12.45;;;;;;;;;;5042692;28;20173;-77
2021/03/01 07:21:36;;;;;;;22.58;12.70;;;;;;;;;;5055562;28;20176;-78
2021/03/01 07:24:03;;;;;;;21.92;11.30;;;;;;;;;;5043758;28;20227;-76
2021/03/01 07:26:29;;;;;;;22.80;11.57;;;;;;;;;;5043295;28;20222;-78
2021/03/01 07:28:56;;;;;;;22.75;12.05;;;;;;;;;;5048678;28;20188;-76
2021/03/01 07:31:23;;;;;;;21.48;12.18;;;;;;;;;;5043399;28;20182;-77
2021/03/01 07:33:49;;;;;;;24.17;13.20;;;;;;;;;;5050014;28;20236;-75
2021/03/01 07:36:17;;;;;;;26.10;12.73;;;;;;;;;;5053692;28;20551;-77
2021/03/01 07:38:43;;;;;;;32.28;14.05;;;;;;;;;;5049826;28;20208;-76
2021/03/01 07:41:09;;;;;;;23.85;12.75;;;;;;;;;;5050018;28;20185;-76
2021/03/01 07:43:45;;;;;;;26.42;13.32;;;;;;;;;;5048349;28;20211;-78
2021/03/01 07:46:11;;;;;;;26.40;12.50;;;;;;;;;;5050167;28;20172;-77
2021/03/01 07:48:38;;;;;;;26.25;13.00;;;;;;;;;;5043525;28;20181;-77
2021/03/01 07:51:04;;;;;;;21.05;11.95;;;;;;;;;;5049242;28;20187;-75
2021/03/01 07:53:46;;;;;;;23.20;13.00;;;;;;;;;;5048774;28;20209;-78
2021/03/01 07:56:24;;;;;;;21.50;12.05;;;;;;;;;;5037213;28;20189;-77
2021/03/01 07:59:03;;;;;;;20.92;11.70;;;;;;;;;;5048049;28;20850;-78
2021/03/01 08:01:30;;;;;;;24.02;13.57;;;;;;;;;;5049130;28;20285;-76
2021/03/01 08:03:56;;;;;;;22.80;11.75;;;;;;;;;;5048540;28;20220;-75
2021/03/01 08:06:22;;;;;;;24.30;12.65;;;;;;;;;;5055640;28;20195;-76
2021/03/01 08:08:49;;;;;;;25.77;12.85;;;;;;;;;;5069035;28;20218;-74
2021/03/01 08:11:16;;;;;;;23.75;12.10;;;;;;;;;;5047324;28;20177;-77
2021/03/01 08:13:42;;;;;;;21.80;12.57;;;;;;;;;;5060621;28;20195;-77
2021/03/01 08:16:22;;;;;;;21.10;11.90;;;;;;;;;;5048852;28;20592;-76
2021/03/01 08:18:51;;;;;;;20.05;11.30;;;;;;;;;;5049001;28;20192;-77
2021/03/01 08:21:18;;;;;;;23.20;12.43;;;;;;;;;;5046411;28;20519;-76
2021/03/01 08:23:47;;;;;;;21.52;11.05;;;;;;;;;;5053193;28;20847;-76
2021/03/01 08:26:27;;;;;;;21.20;11.15;;;;;;;;;;5048598;28;20183;-75
2021/03/01 08:28:54;;;;;;;19.90;11.05;;;;;;;;;;5049178;28;20173;-76
2021/03/01 08:31:21;;;;;;;17.45;11.00;;;;;;;;;;5047926;28;20173;-78
2021/03/01 08:33:47;;;;;;;19.58;11.75;;;;;;;;;;5046326;28;20258;-77
2021/03/01 08:36:13;;;;;;;21.88;11.50;;;;;;;;;;5048248;28;20268;-76
2021/03/01 08:38:46;;;;;;;20.60;11.20;;;;;;;;;;5048719;28;20298;-77
2021/03/01 08:41:13;;;;;;;19.38;11.18;;;;;;;;;;5048897;28;20188;-77
2021/03/01 08:43:39;;;;;;;17.98;9.85;;;;;;;;;;5048361;28;20244;-75
2021/03/01 08:46:07;;;;;;;15.13;9.15;;;;;;;;;;5048458;28;20208;-77
2021/03/01 08:48:39;;;;;;;16.98;9.80;;;;;;;;;;5046823;28;20487;-76
2021/03/01 08:51:05;;;;;;;18.45;10.23;;;;;;;;;;5051424;28;20184;-78
2021/03/01 08:53:31;;;;;;;17.15;9.10;;;;;;;;;;5048323;28;20723;-75
2021/03/01 08:55:58;;;;;;;17.30;10.38;;;;;;;;;;5049440;28;20201;-75
2021/03/01 08:58:29;;;;;;;15.52;9.02;;;;;;;;;;5051228;28;20185;-75
2021/03/01 09:00:59;;;;;;;18.00;9.88;;;;;;;;;;5058223;28;20182;-76
2021/03/01 09:03:28;;;;;;;17.88;9.80;;;;;;;;;;5059687;28;20208;-74
2021/03/01 09:05:56;;;;;;;18.35;10.40;;;;;;;;;;5072709;28;20245;-76
2021/03/01 09:08:45;;;;;;;16.10;9.65;;;;;;;;;;5042602;28;20185;-76
2021/03/01 09:11:12;;;;;;;19.55;10.02;;;;;;;;;;5057654;28;20267;-78
2021/03/01 09:13:38;;;;;;;14.25;9.48;;;;;;;;;;5050099;28;20585;-76
2021/03/01 09:16:05;;;;;;;15.25;9.38;;;;;;;;;;5059769;28;20199;-76
2021/03/01 09:18:32;;;;;;;13.25;9.13;;;;;;;;;;5053500;28;20185;-75
2021/03/01 09:20:58;;;;;;;15.23;9.35;;;;;;;;;;5052062;28;20185;-79
2021/03/01 09:23:36;;;;;;;20.63;10.38;;;;;;;;;;5051915;28;20660;-77
2021/03/01 09:26:03;;;;;;;20.90;10.35;;;;;;;;;;5051572;28;20177;-76
2021/03/01 09:28:30;;;;;;;16.92;10.32;;;;;;;;;;5049980;28;20177;-76
2021/03/01 09:31:00;;;;;;;16.80;11.05;;;;;;;;;;5059489;28;20218;-75
2021/03/01 09:33:29;;;;;;;24.30;14.73;;;;;;;;;;5041166;28;20215;-76
2021/03/01 09:35:55;;;;;;;27.88;17.67;;;;;;;;;;5063299;28;20222;-77
2021/03/01 09:38:21;;;;;;;28.10;17.13;;;;;;;;;;5065220;28;20341;-76
2021/03/01 09:40:48;;;;;;;27.67;17.55;;;;;;;;;;5050743;28;20280;-77
2021/03/01 09:43:23;;;;;;;25.45;16.60;;;;;;;;;;5051268;28;20933;-77
2021/03/01 09:45:49;;;;;;;28.02;16.60;;;;;;;;;;5051481;28;20191;-76
2021/03/01 09:48:15;;;;;;;24.80;17.20;;;;;;;;;;5051508;28;20177;-77
2021/03/01 09:50:41;;;;;;;26.90;17.55;;;;;;;;;;5051199;28;20191;-75
2021/03/01 09:53:07;;;;;;;31.25;20.38;;;;;;;;;;5052893;28;20199;-76
2021/03/01 09:55:33;;;;;;;29.00;19.10;;;;;;;;;;5067864;28;20188;-76
2021/03/01 09:57:59;;;;;;;26.65;17.92;;;;;;;;;;5051435;28;20203;-76
2021/03/01 10:00:27;;;;;;;29.17;18.73;;;;;;;;;;5055459;28;20188;-75
2021/03/01 10:03:03;;;;;;;28.27;18.60;;;;;;;;;;5057504;28;20229;-75
2021/03/01 10:05:31;;;;;;;31.17;18.27;;;;;;;;;;5065881;28;20250;-78
2021/03/01 10:07:58;;;;;;;29.23;20.77;;;;;;;;;;5050353;28;20188;-76
2021/03/01 10:10:25;;;;;;;27.20;20.23;;;;;;;;;;5051179;28;20717;-75
2021/03/01 10:12:51;;;;;;;29.60;20.65;;;;;;;;;;5037818;28;20205;-77
2021/03/01 10:15:18;;;;;;;31.77;21.65;;;;;;;;;;5053293;28;20204;-76
2021/03/01 10:17:44;;;;;;;31.70;20.85;;;;;;;;;;5063419;28;20184;-76
2021/03/01 10:20:11;;;;;;;29.58;18.98;;;;;;;;;;5051016;28;20185;-75
2021/03/01 10:22:55;;;;;;;21.08;14.75;;;;;;;;;;5051165;28;20620;-75
2021/03/01 10:25:32;;;;;;;27.67;18.80;;;;;;;;;;5047961;28;20550;-79
2021/03/01 10:27:58;;;;;;;30.10;20.00;;;;;;;;;;5050969;28;20514;-78
2021/03/01 10:30:24;;;;;;;35.07;23.73;;;;;;;;;;5053083;28;20184;-78
2021/03/01 10:32:50;;;;;;;33.85;21.98;;;;;;;;;;5053770;28;20442;-76
2021/03/01 10:35:17;;;;;;;27.50;18.20;;;;;;;;;;5057232;28;20287;-78
2021/03/01 10:37:59;;;;;;;27.00;18.65;;;;;;;;;;5054037;28;20542;-78
2021/03/01 10:40:25;;;;;;;28.00;17.38;;;;;;;;;;5050173;28;20191;-75
2021/03/01 10:42:51;;;;;;;28.88;17.95;;;;;;;;;;5050555;28;20208;-77
2021/03/01 10:45:19;;;;;;;28.73;19.73;;;;;;;;;;5050192;28;20658;-76
2021/03/01 10:47:58;;;;;;;28.38;20.27;;;;;;;;;;5050265;28;20234;-76
2021/03/01 10:50:24;;;;;;;29.13;20.10;;;;;;;;;;5038889;28;20188;-78
2021/03/01 10:52:50;;;;;;;31.63;20.42;;;;;;;;;;5049601;28;20244;-76
2021/03/01 10:55:16;;;;;;;37.25;22.45;;;;;;;;;;5067913;28;20208;-77
2021/03/01 10:57:42;;;;;;;34.53;21.30;;;;;;;;;;5050475;28;20184;-77
2021/03/01 11:00:09;;;;;;;30.30;22.25;;;;;;;;;;5055978;28;20351;-76
2021/03/01 11:02:35;;;;;;;40.03;24.50;;;;;;;;;;5060128;28;20207;-77
2021/03/01 11:05:01;;;;;;;31.92;21.65;;;;;;;;;;5070049;28;20187;-77
2021/03/01 11:07:28;;;;;;;35.03;21.80;;;;;;;;;;5061088;28;20191;-76
2021/03/01 11:09:54;;;;;;;29.05;20.15;;;;;;;;;;5053791;28;20176;-74
2021/03/01 11:12:20;;;;;;;34.35;23.00;;;;;;;;;;5049777;28;20728;-76
2021/03/01 11:14:47;;;;;;;35.03;24.15;;;;;;;;;;5049853;28;20746;-77
2021/03/01 11:17:13;;;;;;;37.58;22.63;;;;;;;;;;5058183;28;20180;-78
2021/03/01 11:19:39;;;;;;;32.38;22.15;;;;;;;;;;5047785;28;20871;-76
2021/03/01 11:22:05;;;;;;;35.35;22.83;;;;;;;;;;5064203;28;20173;-78
2021/03/01 11:24:31;;;;;;;32.75;22.30;;;;;;;;;;5047944;28;20222;-79
2021/03/01 11:26:57;;;;;;;34.78;22.52;;;;;;;;;;5049980;28;20317;-79
2021/03/01 11:29:23;;;;;;;31.15;21.92;;;;;;;;;;5044024;28;20201;-77
2021/03/01 11:31:50;;;;;;;33.50;22.48;;;;;;;;;;5044579;28;20197;-76
2021/03/01 11:34:16;;;;;;;32.67;21.95;;;;;;;;;;5053543;28;20966;-75
2021/03/01 11:36:42;;;;;;;30.30;21.95;;;;;;;;;;5049600;28;20256;-77
2021/03/01 11:39:09;;;;;;;25.30;19.80;;;;;;;;;;5046541;28;20269;-77
2021/03/01 11:41:36;;;;;;;24.20;18.10;;;;;;;;;;5045415;28;20435;-77
2021/03/01 11:44:02;;;;;;;23.10;18.85;;;;;;;;;;5045820;28;20209;-78
2021/03/01 11:46:28;;;;;;;20.77;17.10;;;;;;;;;;5045972;28;20213;-78
2021/03/01 11:48:54;;;;;;;21.57;18.47;;;;;;;;;;5050746;28;20431;-75
2021/03/01 11:51:20;;;;;;;22.33;20.03;;;;;;;;;;5048925;28;20912;-78
2021/03/01 11:53:46;;;;;;;20.73;18.53;;;;;;;;;;5048722;28;20443;-78
2021/03/01 11:56:14;;;;;;;20.60;16.30;;;;;;;;;;5048999;28;20439;-76
2021/03/01 11:58:41;;;;;;;14.13;12.73;;;;;;;;;;5047671;28;20843;-76
2021/03/01 12:01:07;;;;;;;16.37;14.67;;;;;;;;;;5047854;28;20490;-80
2021/03/01 12:03:34;;;;;;;14.57;13.00;;;;;;;;;;5048669;28;20471;-77
2021/03/01 12:06:00;;;;;;;15.03;13.30;;;;;;;;;;5049175;28;20501;-75
2021/03/01 12:08:26;;;;;;;15.63;13.77;;;;;;;;;;5048849;28;20426;-76
2021/03/01 12:10:53;;;;;;;14.67;13.17;;;;;;;;;;5048964;28;20523;-78
2021/03/01 12:13:19;;;;;;;10.27;9.27;;;;;;;;;;5048206;28;20804;-78
2021/03/01 12:15:45;;;;;;;15.93;12.87;;;;;;;;;;5046413;28;20442;-77
2021/03/01 12:18:11;;;;;;;21.07;18.90;;;;;;;;;;5050337;28;20431;-77
2021/03/01 12:20:37;;;;;;;15.40;13.90;;;;;;;;;;5054649;28;20864;-77
2021/03/01 12:23:04;;;;;;;14.20;12.70;;;;;;;;;;5045534;28;20482;-79
2021/03/01 12:25:30;;;;;;;13.67;12.07;;;;;;;;;;5048955;28;20430;-76
2021/03/01 12:27:56;;;;;;;16.80;12.37;;;;;;;;;;5044664;28;20427;-76
2021/03/01 12:30:22;;;;;;;15.17;12.30;;;;;;;;;;5050531;28;20445;-78
2021/03/01 12:32:48;;;;;;;14.17;12.77;;;;;;;;;;5050813;28;20454;-78
2021/03/01 12:35:14;;;;;;;13.97;12.53;;;;;;;;;;5072542;28;20921;-74
2021/03/01 12:37:40;;;;;;;13.93;12.53;;;;;;;;;;5064139;28;20510;-76
2021/03/01 12:40:07;;;;;;;13.87;12.37;;;;;;;;;;5053827;28;20419;-78
2021/03/01 12:42:34;;;;;;;13.47;12.07;;;;;;;;;;5053352;28;20524;-75
2021/03/01 12:45:00;;;;;;;13.00;11.40;;;;;;;;;;5039387;28;20427;-78
2021/03/01 12:47:26;;;;;;;12.83;11.50;;;;;;;;;;5044458;28;20423;-77
2021/03/01 12:49:52;;;;;;;13.67;12.27;;;;;;;;;;5049628;28;20794;-74
2021/03/01 12:52:18;;;;;;;14.50;12.43;;;;;;;;;;5059480;28;20439;-74
2021/03/01 12:54:44;;;;;;;13.63;12.23;;;;;;;;;;5065526;28;20429;-74
2021/03/01 12:57:11;;;;;;;12.80;11.53;;;;;;;;;;5052755;28;20422;-75
2021/03/01 12:59:37;;;;;;;14.23;11.90;;;;;;;;;;5052391;28;20504;-74
2021/03/01 13:02:06;;;;;;;13.03;11.73;;;;;;;;;;5045864;28;20427;-73
2021/03/01 13:04:32;;;;;;;16.20;13.27;;;;;;;;;;5064754;28;21218;-74
2021/03/01 13:06:59;;;;;;;14.00;12.67;;;;;;;;;;5052341;28;20447;-75
2021/03/01 13:09:25;;;;;;;16.73;15.00;;;;;;;;;;5048731;28;20431;-74
2021/03/01 13:11:51;;;;;;;17.90;16.07;;;;;;;;;;5050925;28;20431;-74
2021/03/01 13:14:17;;;;;;;18.20;15.70;;;;;;;;;;5059213;28;20446;-77
2021/03/01 13:16:43;;;;;;;18.30;16.50;;;;;;;;;;5065014;28;20423;-77
2021/03/01 13:19:09;;;;;;;18.23;16.40;;;;;;;;;;5053573;28;20781;-76
2021/03/01 13:21:35;;;;;;;17.70;15.97;;;;;;;;;;5064603;28;20436;-76
2021/03/01 13:24:01;;;;;;;17.23;15.47;;;;;;;;;;5046675;28;20562;-77
2021/03/01 13:26:28;;;;;;;17.40;15.60;;;;;;;;;;5050446;28;20924;-76
2021/03/01 13:28:54;;;;;;;18.03;16.10;;;;;;;;;;5047254;28;20428;-77
2021/03/01 13:31:20;;;;;;;17.47;15.77;;;;;;;;;;5040985;28;20453;-78
2021/03/01 13:33:46;;;;;;;18.73;16.73;;;;;;;;;;5052260;28;21006;-78
2021/03/01 13:36:12;;;;;;;18.73;16.73;;;;;;;;;;5062081;28;20891;-75
2021/03/01 13:38:38;;;;;;;18.23;16.33;;;;;;;;;;5050407;28;20435;-76
2021/03/01 13:41:04;;;;;;;16.20;14.60;;;;;;;;;;5056194;28;20518;-76
2021/03/01 13:43:31;;;;;;;17.77;15.97;;;;;;;;;;5054414;28;20832;-76
2021/03/01 13:45:57;;;;;;;17.77;15.97;;;;;;;;;;5052299;28;20924;-77
2021/03/01 13:48:23;;;;;;;18.10;16.10;;;;;;;;;;5043458;28;20461;-77
2021/03/01 13:50:49;;;;;;;18.20;16.40;;;;;;;;;;5055478;28;20416;-76
2021/03/01 13:53:15;;;;;;;17.77;15.80;;;;;;;;;;5052230;28;20450;-75
2021/03/01 13:55:41;;;;;;;18.93;16.70;;;;;;;;;;5052404;28;21093;-76
2021/03/01 13:58:07;;;;;;;19.10;15.63;;;;;;;;;;5051911;28;20461;-77
2021/03/01 14:00:34;;;;;;;16.00;14.30;;;;;;;;;;5051727;28;21164;-76
2021/03/01 14:03:00;;;;;;;16.30;14.00;;;;;;;;;;5050584;28;20976;-76
2021/03/01 14:05:26;;;;;;;17.13;15.30;;;;;;;;;;5038713;28;20490;-77
2021/03/01 14:07:52;;;;;;;16.33;14.53;;;;;;;;;;5052547;28;20415;-76
2021/03/01 14:10:18;;;;;;;16.90;15.10;;;;;;;;;;5053219;28;20772;-78
2021/03/01 14:12:44;;;;;;;15.10;13.50;;;;;;;;;;5062561;28;20476;-78
2021/03/01 14:15:10;;;;;;;16.63;14.40;;;;;;;;;;5051337;28;21115;-78
2021/03/01 14:17:37;;;;;;;15.60;13.90;;;;;;;;;;5051310;28;20425;-75
2021/03/01 14:20:06;;;;;;;19.03;14.37;;;;;;;;;;5051173;28;20421;-76